createdAt,value
2022-12-01T00:00:27.454Z,-11.46
2022-12-01T00:02:30.907Z,-11.52
2022-12-01T00:04:33.598Z,-11.50
2022-12-01T00:06:37.109Z,-11.49
2022-12-01T00:08:39.707Z,-11.55
2022-12-01T00:10:42.331Z,-11.53
2022-12-01T00:12:44.949Z,-11.53
2022-12-01T00:14:54.992Z,-11.56
2022-12-01T00:16:57.752Z,-11.53
2022-12-01T00:19:00.615Z,-11.55
2022-12-01T00:21:03.129Z,-11.56
2022-12-01T00:23:05.706Z,-11.62
2022-12-01T00:25:08.345Z,-11.61
2022-12-01T00:27:10.858Z,-11.63
2022-12-01T00:29:13.409Z,-11.66
2022-12-01T00:31:16.053Z,-11.65
2022-12-01T00:33:18.638Z,-11.66
2022-12-01T00:35:21.181Z,-11.65
2022-12-01T00:37:23.911Z,-11.64
2022-12-01T00:39:26.573Z,-11.64
2022-12-01T00:41:29.274Z,-11.64
2022-12-01T00:43:32.096Z,-11.63
2022-12-01T00:45:34.791Z,-11.59
2022-12-01T00:47:37.747Z,-11.56
2022-12-01T00:49:40.292Z,-11.60
2022-12-01T00:51:42.908Z,-11.58
2022-12-01T00:53:46.208Z,-11.59
2022-12-01T00:55:49.031Z,-11.58
2022-12-01T00:57:51.595Z,-11.58
2022-12-01T00:59:54.230Z,-11.60
2022-12-01T01:01:56.862Z,-11.52
2022-12-01T01:03:59.490Z,-11.50
2022-12-01T01:06:11.294Z,-11.56
2022-12-01T01:08:15.326Z,-11.57
2022-12-01T01:10:17.957Z,-11.55
2022-12-01T01:12:20.623Z,-11.55
2022-12-01T01:14:24.328Z,-11.58
2022-12-01T01:16:27.144Z,-11.57
2022-12-01T01:18:30.143Z,-11.54
2022-12-01T01:20:33.256Z,-11.53
2022-12-01T01:22:35.883Z,-11.51
2022-12-01T01:24:38.555Z,-11.49
2022-12-01T01:26:41.151Z,-11.55
2022-12-01T01:28:44.042Z,-11.55
2022-12-01T01:30:47.094Z,-11.57
2022-12-01T01:32:49.698Z,-11.62
2022-12-01T01:34:52.378Z,-11.68
2022-12-01T01:36:54.971Z,-11.70
2022-12-01T01:38:57.669Z,-11.66
2022-12-01T01:41:00.300Z,-11.66
2022-12-01T01:43:02.945Z,-11.70
2022-12-01T01:45:33.156Z,-11.66
2022-12-01T01:47:39.621Z,-11.64
2022-12-01T01:49:43.229Z,-11.66
2022-12-01T01:51:49.431Z,-11.70
2022-12-01T01:53:56.694Z,-11.75
2022-12-01T01:56:01.153Z,-11.77
2022-12-01T01:58:07.950Z,-11.81
2022-12-01T02:00:14.419Z,-11.87
2022-12-01T02:02:17.147Z,-11.97
2022-12-01T02:04:20.791Z,-11.98
2022-12-01T02:06:24.777Z,-12.01
2022-12-01T02:08:27.507Z,-12.03
2022-12-01T02:10:59.675Z,-12.04
2022-12-01T02:13:26.524Z,-12.10
2022-12-01T02:15:34.829Z,-12.09
2022-12-01T02:17:58.648Z,-12.10
2022-12-01T02:20:28.918Z,-12.11
2022-12-01T02:22:50.721Z,-12.11
2022-12-01T02:25:08.007Z,-12.12
2022-12-01T02:27:52.408Z,-12.17
2022-12-01T02:29:57.659Z,-12.23
2022-12-01T02:32:37.460Z,-12.23
2022-12-01T02:34:49.077Z,-12.23
2022-12-01T02:36:58.654Z,-12.25
2022-12-01T02:39:11.019Z,-12.23
2022-12-01T02:41:23.285Z,-12.31
2022-12-01T02:43:31.558Z,-12.31
2022-12-01T02:45:58.842Z,-12.29
2022-12-01T02:48:03.339Z,-12.23
2022-12-01T02:50:08.459Z,-12.27
2022-12-01T02:52:11.895Z,-12.30
2022-12-01T02:54:15.412Z,-12.31
2022-12-01T02:56:21.775Z,-12.32
2022-12-01T02:58:24.441Z,-12.33
2022-12-01T03:00:27.074Z,-12.30
2022-12-01T03:02:44.040Z,-12.25
2022-12-01T03:04:57.341Z,-12.22
2022-12-01T03:07:12.322Z,-12.19
2022-12-01T03:09:45.314Z,-12.19
2022-12-01T03:12:14.592Z,-12.19
2022-12-01T03:14:42.761Z,-12.27
2022-12-01T03:16:52.184Z,-12.27
2022-12-01T03:19:10.232Z,-12.21
2022-12-01T03:21:54.404Z,-12.24
2022-12-01T03:24:02.427Z,-12.35
2022-12-01T03:26:08.546Z,-12.30
2022-12-01T03:28:23.068Z,-12.32
2022-12-01T03:30:27.311Z,-12.33
2022-12-01T03:32:52.427Z,-12.33
2022-12-01T03:35:11.410Z,-12.30
2022-12-01T03:37:20.751Z,-12.32
2022-12-01T03:39:29.274Z,-12.31
2022-12-01T03:41:39.459Z,-12.30
2022-12-01T03:43:49.528Z,-12.31
2022-12-01T03:45:54.992Z,-12.28
2022-12-01T03:47:57.781Z,-12.26
2022-12-01T03:50:01.044Z,-12.23
2022-12-01T03:52:09.421Z,-12.20
2022-12-01T03:54:18.204Z,-12.21
2022-12-01T03:56:24.907Z,-12.31
2022-12-01T03:58:34.482Z,-12.30
2022-12-01T04:00:37.495Z,-12.37
2022-12-01T04:02:41.225Z,-12.41
2022-12-01T04:04:43.842Z,-12.48
2022-12-01T04:06:50.377Z,-12.51
2022-12-01T04:08:53.078Z,-12.48
2022-12-01T04:10:55.677Z,-12.47
2022-12-01T04:12:59.813Z,-12.48
2022-12-01T04:15:05.864Z,-12.53
2022-12-01T04:17:08.620Z,-12.60
2022-12-01T04:19:12.222Z,-12.70
2022-12-01T04:21:14.919Z,-12.77
2022-12-01T04:23:36.069Z,-12.80
2022-12-01T04:25:38.703Z,-12.85
2022-12-01T04:27:41.332Z,-12.95
2022-12-01T04:29:43.928Z,-13.02
2022-12-01T04:31:46.520Z,-13.06
2022-12-01T04:33:49.221Z,-13.11
2022-12-01T04:36:01.346Z,-13.12
2022-12-01T04:38:04.074Z,-13.13
2022-12-01T04:40:07.576Z,-13.16
2022-12-01T04:42:11.061Z,-13.23
2022-12-01T04:44:14.015Z,-13.26
2022-12-01T04:46:16.653Z,-13.30
2022-12-01T04:48:19.258Z,-13.31
2022-12-01T04:50:22.586Z,-13.37
2022-12-01T04:52:25.204Z,-13.38
2022-12-01T04:54:28.425Z,-13.41
2022-12-01T04:56:31.010Z,-13.48
2022-12-01T04:58:34.546Z,-13.52
2022-12-01T05:00:37.967Z,-13.54
2022-12-01T05:02:43.599Z,-13.63
2022-12-01T05:04:48.253Z,-13.69
2022-12-01T05:06:50.824Z,-13.74
2022-12-01T05:08:56.784Z,-13.76
2022-12-01T05:10:59.467Z,-13.74
2022-12-01T05:13:02.636Z,-13.74
2022-12-01T05:15:05.725Z,-13.76
2022-12-01T05:17:08.265Z,-13.77
2022-12-01T05:19:29.394Z,-13.80
2022-12-01T05:21:31.981Z,-13.82
2022-12-01T05:23:36.243Z,-13.82
2022-12-01T05:25:38.826Z,-13.82
2022-12-01T05:27:41.528Z,-13.80
2022-12-01T05:29:44.391Z,-13.79
2022-12-01T05:31:47.374Z,-13.77
2022-12-01T05:33:50.044Z,-13.76
2022-12-01T05:35:53.190Z,-13.75
2022-12-01T05:37:55.829Z,-13.76
2022-12-01T05:39:58.369Z,-13.73
2022-12-01T05:42:00.945Z,-13.76
2022-12-01T05:44:03.753Z,-13.75
2022-12-01T05:46:06.352Z,-13.82
2022-12-01T05:48:09.595Z,-13.95
2022-12-01T05:50:12.264Z,-13.96
2022-12-01T05:52:14.881Z,-13.97
2022-12-01T05:54:17.445Z,-13.91
2022-12-01T05:56:20.206Z,-13.91
2022-12-01T05:58:23.937Z,-13.83
2022-12-01T06:00:26.520Z,-13.78
2022-12-01T06:02:29.121Z,-13.70
2022-12-01T06:04:31.743Z,-13.71
2022-12-01T06:06:34.337Z,-13.71
2022-12-01T06:08:36.964Z,-13.71
2022-12-01T06:10:39.502Z,-13.79
2022-12-01T06:12:42.063Z,-13.76
2022-12-01T06:14:44.799Z,-13.73
2022-12-01T06:16:47.548Z,-13.64
2022-12-01T06:18:50.106Z,-13.65
2022-12-01T06:20:52.766Z,-13.58
2022-12-01T06:22:55.363Z,-13.64
2022-12-01T06:24:57.976Z,-13.49
2022-12-01T06:27:00.541Z,-13.40
2022-12-01T06:29:03.357Z,-13.39
2022-12-01T06:31:06.261Z,-13.25
2022-12-01T06:33:09.192Z,-13.20
2022-12-01T06:35:11.869Z,-13.17
2022-12-01T06:37:15.848Z,-13.12
2022-12-01T06:39:18.884Z,-13.12
2022-12-01T06:41:21.520Z,-13.08
2022-12-01T06:43:24.044Z,-13.08
2022-12-01T06:45:26.648Z,-13.03
2022-12-01T06:47:29.154Z,-13.00
2022-12-01T06:49:31.790Z,-12.98
2022-12-01T06:51:34.539Z,-12.92
2022-12-01T06:53:37.049Z,-12.93
2022-12-01T06:55:39.785Z,-12.95
2022-12-01T06:57:43.500Z,-12.90
2022-12-01T06:59:46.325Z,-12.92
2022-12-01T07:01:49.416Z,-12.87
2022-12-01T07:03:52.050Z,-12.86
2022-12-01T07:06:01.928Z,-12.80
2022-12-01T07:08:04.700Z,-12.80
2022-12-01T07:10:09.678Z,-12.74
2022-12-01T07:12:12.158Z,-12.72
2022-12-01T07:14:24.756Z,-12.68
2022-12-01T07:16:27.407Z,-12.63
2022-12-01T07:18:30.285Z,-12.59
2022-12-01T07:20:32.807Z,-12.54
2022-12-01T07:22:36.299Z,-12.52
2022-12-01T07:24:38.835Z,-12.63
2022-12-01T07:26:41.930Z,-12.64
2022-12-01T07:28:45.681Z,-12.57
2022-12-01T07:30:48.784Z,-12.51
2022-12-01T07:32:51.357Z,-12.47
2022-12-01T07:34:53.854Z,-12.52
2022-12-01T07:36:56.492Z,-12.42
2022-12-01T07:38:59.055Z,-12.41
2022-12-01T07:41:10.161Z,-12.43
2022-12-01T07:43:12.733Z,-12.51
2022-12-01T07:45:15.513Z,-12.47
2022-12-01T07:47:18.189Z,-12.37
2022-12-01T07:49:20.808Z,-12.30
2022-12-01T07:51:25.108Z,-12.28
2022-12-01T07:53:27.782Z,-12.17
2022-12-01T07:55:30.298Z,-12.21
2022-12-01T07:57:32.869Z,-12.21
2022-12-01T07:59:35.489Z,-12.17
2022-12-01T08:01:44.094Z,-12.11
2022-12-01T08:03:49.926Z,-12.04
2022-12-01T08:05:59.185Z,-12.01
2022-12-01T08:08:02.043Z,-12.07
2022-12-01T08:10:04.983Z,-12.18
2022-12-01T08:12:07.881Z,-12.14
2022-12-01T08:14:10.438Z,-12.01
2022-12-01T08:16:15.760Z,-12.05
2022-12-01T08:18:18.355Z,-11.99
2022-12-01T08:20:24.012Z,-11.98
2022-12-01T08:22:26.901Z,-11.95
2022-12-01T08:24:29.605Z,-11.92
2022-12-01T08:26:32.382Z,-11.85
2022-12-01T08:28:41.388Z,-11.72
2022-12-01T08:30:44.057Z,-11.70
2022-12-01T08:32:46.889Z,-11.64
2022-12-01T08:34:53.493Z,-11.55
2022-12-01T08:36:56.508Z,-11.50
2022-12-01T08:38:59.126Z,-11.36
2022-12-01T08:41:08.071Z,-11.31
2022-12-01T08:43:28.279Z,-11.24
2022-12-01T08:45:33.606Z,-11.16
2022-12-01T08:47:36.149Z,-11.06
2022-12-01T08:49:38.674Z,-11.03
2022-12-01T08:51:41.272Z,-11.02
2022-12-01T08:53:47.510Z,-10.99
2022-12-01T08:55:50.068Z,-10.88
2022-12-01T08:57:52.649Z,-10.79
2022-12-01T08:59:55.193Z,-10.78
2022-12-01T09:01:59.697Z,-10.71
2022-12-01T09:04:10.934Z,-10.60
2022-12-01T09:06:20.366Z,-10.57
2022-12-01T09:08:31.895Z,-10.56
2022-12-01T09:10:34.489Z,-10.59
2022-12-01T09:12:37.080Z,-10.59
2022-12-01T09:14:48.363Z,-10.56
2022-12-01T09:16:51.217Z,-10.52
2022-12-01T09:18:54.905Z,-10.44
2022-12-01T09:20:58.507Z,-10.37
2022-12-01T09:23:01.081Z,-10.32
2022-12-01T09:25:04.012Z,-10.24
2022-12-01T09:27:06.730Z,-10.23
2022-12-01T09:29:11.901Z,-10.20
2022-12-01T09:31:16.093Z,-10.18
2022-12-01T09:33:18.927Z,-10.25
2022-12-01T09:35:23.591Z,-10.30
2022-12-01T09:37:26.358Z,-10.27
2022-12-01T09:39:29.886Z,-10.35
2022-12-01T09:41:44.724Z,-10.39
2022-12-01T09:44:15.888Z,-10.40
2022-12-01T09:46:27.702Z,-10.45
2022-12-01T09:48:42.775Z,-10.54
2022-12-01T09:50:45.495Z,-10.51
2022-12-01T09:52:53.462Z,-10.51
2022-12-01T09:54:59.281Z,-10.46
2022-12-01T09:57:02.513Z,-10.41
2022-12-01T09:59:08.525Z,-10.41
2022-12-01T10:01:19.774Z,-10.49
2022-12-01T10:03:54.706Z,-10.55
2022-12-01T10:08:32.111Z,-10.57
2022-12-01T10:10:38.440Z,-10.59
2022-12-01T10:12:43.352Z,-10.63
2022-12-01T10:14:47.785Z,-10.66
2022-12-01T10:17:12.797Z,-10.60
2022-12-01T10:19:31.438Z,-10.67
2022-12-01T10:21:46.107Z,-10.64
2022-12-01T10:23:51.285Z,-10.66
2022-12-01T10:26:03.403Z,-10.72
2022-12-01T10:28:21.925Z,-10.75
2022-12-01T10:30:25.187Z,-10.79
2022-12-01T10:32:52.629Z,-10.78
2022-12-01T10:34:55.283Z,-10.80
2022-12-01T10:36:58.952Z,-10.83
2022-12-01T10:39:04.889Z,-10.92
2022-12-01T10:41:14.613Z,-10.97
2022-12-01T10:43:17.276Z,-11.03
2022-12-01T10:45:23.779Z,-11.07
2022-12-01T10:47:28.240Z,-11.03
2022-12-01T10:49:39.307Z,-11.00
2022-12-01T10:51:53.526Z,-10.93
2022-12-01T10:54:06.604Z,-10.88
2022-12-01T10:56:14.380Z,-10.88
2022-12-01T10:58:19.702Z,-10.93
2022-12-01T11:00:57.906Z,-11.04
2022-12-01T11:02:51.321Z,-10.93
2022-12-01T11:04:53.905Z,-10.92
2022-12-01T11:06:57.375Z,-10.91
2022-12-01T11:09:03.246Z,-10.92
2022-12-01T11:11:06.478Z,-10.88
2022-12-01T11:13:23.713Z,-10.80
2022-12-01T11:15:31.465Z,-10.70
2022-12-01T11:17:42.239Z,-10.67
2022-12-01T11:19:44.834Z,-10.68
2022-12-01T11:21:53.220Z,-10.72
2022-12-01T11:23:56.720Z,-10.73
2022-12-01T11:26:02.089Z,-10.71
2022-12-01T11:28:05.404Z,-10.75
2022-12-01T11:30:21.396Z,-10.81
2022-12-01T11:32:30.509Z,-10.85
2022-12-01T11:34:38.502Z,-10.96
2022-12-01T11:36:47.595Z,-11.06
2022-12-01T11:38:55.303Z,-11.14
2022-12-01T11:40:58.714Z,-11.18
2022-12-01T11:43:05.093Z,-11.30
2022-12-01T11:45:28.408Z,-11.40
2022-12-01T11:47:31.191Z,-11.43
2022-12-01T11:49:46.921Z,-11.46
2022-12-01T11:51:50.563Z,-11.53
2022-12-01T11:54:18.082Z,-11.58
2022-12-01T11:56:23.909Z,-11.55
2022-12-01T11:58:26.547Z,-11.60
2022-12-01T12:00:41.374Z,-11.65
2022-12-01T12:03:06.448Z,-11.70
2022-12-01T12:05:30.665Z,-11.73
2022-12-01T12:07:44.597Z,-11.76
2022-12-01T12:09:59.282Z,-11.79
2022-12-01T12:12:07.492Z,-11.76
2022-12-01T12:14:37.475Z,-11.77
2022-12-01T12:17:01.927Z,-11.80
2022-12-01T12:19:17.358Z,-11.85
2022-12-01T12:21:41.056Z,-11.90
2022-12-01T12:23:49.224Z,-11.92
2022-12-01T12:26:31.341Z,-11.97
2022-12-01T12:28:56.795Z,-12.08
2022-12-01T12:31:20.313Z,-12.09
2022-12-01T12:33:35.510Z,-12.16
2022-12-01T12:36:09.921Z,-12.18
2022-12-01T12:38:34.286Z,-12.23
2022-12-01T12:40:58.172Z,-12.29
2022-12-01T12:43:28.082Z,-12.29
2022-12-01T12:45:36.317Z,-12.28
2022-12-01T12:48:06.050Z,-12.27
2022-12-01T12:50:33.109Z,-12.28
2022-12-01T12:52:40.808Z,-12.27
2022-12-01T12:54:48.987Z,-12.27
2022-12-01T12:56:58.146Z,-12.24
2022-12-01T12:59:10.125Z,-12.20
2022-12-01T13:01:24.329Z,-12.16
2022-12-01T13:03:50.065Z,-12.18
2022-12-01T13:06:14.260Z,-12.22
2022-12-01T13:08:50.370Z,-12.14
2022-12-01T13:11:00.470Z,-12.13
2022-12-01T13:13:30.584Z,-12.13
2022-12-01T13:15:36.662Z,-12.01
2022-12-01T13:17:43.207Z,-11.96
2022-12-01T13:19:46.885Z,-11.92
2022-12-01T13:21:52.743Z,-11.92
2022-12-01T13:23:55.540Z,-11.86
2022-12-01T13:26:01.042Z,-11.83
2022-12-01T13:28:07.257Z,-11.75
2022-12-01T13:30:25.628Z,-11.71
2022-12-01T13:32:40.884Z,-11.79
2022-12-01T13:34:47.942Z,-11.77
2022-12-01T13:36:52.197Z,-11.75
2022-12-01T13:39:15.646Z,-11.72
2022-12-01T13:41:18.921Z,-11.77
2022-12-01T13:43:23.516Z,-11.77
2022-12-01T13:45:32.890Z,-11.76
2022-12-01T13:47:41.125Z,-11.84
2022-12-01T13:49:46.456Z,-11.80
2022-12-01T13:52:17.073Z,-11.79
2022-12-01T13:54:30.756Z,-11.74
2022-12-01T13:56:39.595Z,-11.72
2022-12-01T13:58:46.218Z,-11.70
2022-12-01T14:00:51.230Z,-11.68
2022-12-01T14:03:12.556Z,-11.67
2022-12-01T14:05:39.501Z,-11.64
2022-12-01T14:07:42.382Z,-11.63
2022-12-01T14:09:45.534Z,-11.61
2022-12-01T14:12:06.684Z,-11.66
2022-12-01T14:14:09.239Z,-11.60
2022-12-01T14:16:12.107Z,-11.63
2022-12-01T14:18:44.128Z,-11.64
2022-12-01T14:20:49.049Z,-11.62
2022-12-01T14:23:19.186Z,-11.57
2022-12-01T14:25:21.636Z,-11.55
2022-12-01T14:27:43.381Z,-11.55
2022-12-01T14:29:46.575Z,-11.56
2022-12-01T14:31:52.101Z,-11.58
2022-12-01T14:34:01.812Z,-11.55
2022-12-01T14:36:07.989Z,-11.55
2022-12-01T14:38:10.860Z,-11.54
2022-12-01T14:40:18.707Z,-11.58
2022-12-01T14:42:59.929Z,-11.57
2022-12-01T14:45:04.312Z,-11.53
2022-12-01T14:47:21.931Z,-11.52
2022-12-01T14:49:31.689Z,-11.47
2022-12-01T14:51:36.515Z,-11.39
2022-12-01T14:53:44.652Z,-11.35
2022-12-01T14:55:57.685Z,-11.29
2022-12-01T14:58:13.015Z,-11.22
2022-12-01T15:00:21.854Z,-11.19
2022-12-01T15:02:25.011Z,-11.23
2022-12-01T15:04:27.670Z,-11.19
2022-12-01T15:06:32.707Z,-11.09
2022-12-01T15:08:49.197Z,-11.06
2022-12-01T15:10:53.527Z,-11.08
2022-12-01T15:12:56.358Z,-11.05
2022-12-01T15:14:58.951Z,-11.01
2022-12-01T15:17:05.790Z,-11.00
2022-12-01T15:19:39.241Z,-10.95
2022-12-01T15:21:41.887Z,-10.94
2022-12-01T15:23:54.298Z,-10.87
2022-12-01T15:25:57.465Z,-10.88
2022-12-01T15:28:21.349Z,-10.84
2022-12-01T15:30:23.969Z,-10.81
2022-12-01T15:32:27.368Z,-10.82
2022-12-01T15:34:33.666Z,-10.80
2022-12-01T15:36:46.390Z,-10.79
2022-12-01T15:38:49.864Z,-10.75
2022-12-01T15:41:21.119Z,-10.72
2022-12-01T15:43:23.037Z,-10.81
2022-12-01T15:45:25.752Z,-10.92
2022-12-01T15:47:36.140Z,-10.88
2022-12-01T15:49:49.723Z,-10.92
2022-12-01T15:51:52.470Z,-10.97
2022-12-01T15:53:59.874Z,-10.99
2022-12-01T15:56:11.716Z,-11.07
2022-12-01T15:58:30.345Z,-10.97
2022-12-01T16:00:33.127Z,-10.99
2022-12-01T16:02:35.800Z,-10.89
2022-12-01T16:04:38.454Z,-10.83
2022-12-01T16:06:41.986Z,-10.81
2022-12-01T16:09:03.843Z,-10.79
2022-12-01T16:11:17.987Z,-10.74
2022-12-01T16:13:45.853Z,-10.73
2022-12-01T16:15:48.480Z,-10.74
2022-12-01T16:17:54.034Z,-10.69
2022-12-01T16:20:18.081Z,-10.62
2022-12-01T16:22:22.546Z,-10.58
2022-12-01T16:24:43.098Z,-10.64
2022-12-01T16:26:52.834Z,-10.57
2022-12-01T16:28:56.637Z,-10.59
2022-12-01T16:30:59.402Z,-10.64
2022-12-01T16:33:24.150Z,-10.65
2022-12-01T16:35:33.961Z,-10.67
2022-12-01T16:37:36.619Z,-10.61
2022-12-01T16:39:39.516Z,-10.60
2022-12-01T16:41:48.021Z,-10.58
2022-12-01T16:44:20.406Z,-10.66
2022-12-01T16:46:14.335Z,-10.55
2022-12-01T16:48:19.612Z,-10.56
2022-12-01T16:50:23.076Z,-10.55
2022-12-01T16:54:49.907Z,-10.52
2022-12-01T16:56:53.184Z,-10.51
2022-12-01T16:58:55.728Z,-10.47
2022-12-01T17:00:58.963Z,-10.46
2022-12-01T17:03:01.900Z,-10.46
2022-12-01T17:05:05.051Z,-10.44
2022-12-01T17:07:07.656Z,-10.54
2022-12-01T17:09:10.281Z,-10.62
2022-12-01T17:11:13.850Z,-10.68
2022-12-01T17:13:16.534Z,-10.73
2022-12-01T17:15:19.359Z,-10.68
2022-12-01T17:17:21.980Z,-10.71
2022-12-01T17:19:24.591Z,-10.70
2022-12-01T17:21:27.198Z,-10.62
2022-12-01T17:23:30.406Z,-10.59
2022-12-01T17:25:33.444Z,-10.54
2022-12-01T17:27:37.624Z,-10.50
2022-12-01T17:29:45.722Z,-10.50
2022-12-01T17:31:48.586Z,-10.47
2022-12-01T17:33:51.708Z,-10.49
2022-12-01T17:35:54.388Z,-10.40
2022-12-01T17:37:56.952Z,-10.36
2022-12-01T17:39:59.582Z,-10.35
2022-12-01T17:42:02.212Z,-10.31
2022-12-01T17:44:05.595Z,-10.29
2022-12-01T17:46:11.094Z,-10.27
2022-12-01T17:48:13.766Z,-10.22
2022-12-01T17:50:17.057Z,-10.23
2022-12-01T17:52:22.172Z,-10.21
2022-12-01T17:54:28.087Z,-10.17
2022-12-01T17:56:30.729Z,-10.17
2022-12-01T17:58:33.268Z,-10.15
2022-12-01T18:00:35.933Z,-10.14
2022-12-01T18:02:38.562Z,-10.11
2022-12-01T18:04:41.277Z,-10.12
2022-12-01T18:06:46.836Z,-10.12
2022-12-01T18:08:52.145Z,-10.10
2022-12-01T18:10:55.263Z,-10.09
2022-12-01T18:12:57.832Z,-10.07
2022-12-01T18:15:00.457Z,-10.05
2022-12-01T18:17:04.094Z,-10.06
2022-12-01T18:19:06.749Z,-10.05
2022-12-01T18:21:12.282Z,-10.05
2022-12-01T18:23:14.841Z,-10.06
2022-12-01T18:25:17.602Z,-10.03
2022-12-01T18:27:20.123Z,-10.05
2022-12-01T18:29:26.329Z,-10.06
2022-12-01T18:31:31.125Z,-10.05
2022-12-01T18:33:34.796Z,-10.05
2022-12-01T18:35:43.860Z,-10.07
2022-12-01T18:37:46.493Z,-10.06
2022-12-01T18:39:49.228Z,-10.07
2022-12-01T18:41:51.925Z,-10.05
2022-12-01T18:43:54.808Z,-10.03
2022-12-01T18:45:58.425Z,-10.02
2022-12-01T18:48:00.960Z,-9.98
2022-12-01T18:50:04.522Z,-10.01
2022-12-01T18:52:07.254Z,-9.98
2022-12-01T18:54:14.176Z,-9.95
2022-12-01T18:56:17.305Z,-9.93
2022-12-01T18:58:20.209Z,-9.89
2022-12-01T19:00:23.166Z,-9.89
2022-12-01T19:02:26.737Z,-9.86
2022-12-01T19:04:29.562Z,-9.84
2022-12-01T19:06:34.174Z,-9.83
2022-12-01T19:08:37.058Z,-9.82
2022-12-01T19:10:39.725Z,-9.79
2022-12-01T19:12:42.454Z,-9.79
2022-12-01T19:14:45.028Z,-9.77
2022-12-01T19:16:47.861Z,-9.75
2022-12-01T19:18:50.639Z,-9.75
2022-12-01T19:20:53.567Z,-9.70
2022-12-01T19:22:56.156Z,-9.68
2022-12-01T19:24:58.704Z,-9.68
2022-12-01T19:27:01.365Z,-9.67
2022-12-01T19:29:04.194Z,-9.65
2022-12-01T19:31:08.762Z,-9.63
2022-12-01T19:33:11.536Z,-9.62
2022-12-01T19:35:14.208Z,-9.60
2022-12-01T19:37:18.343Z,-9.62
2022-12-01T19:39:20.996Z,-9.63
2022-12-01T19:41:25.346Z,-9.63
2022-12-01T19:43:28.158Z,-9.61
2022-12-01T19:45:31.604Z,-9.58
2022-12-01T19:47:35.710Z,-9.57
2022-12-01T19:49:38.319Z,-9.55
2022-12-01T19:51:56.316Z,-9.54
2022-12-01T19:54:20.645Z,-9.58
2022-12-01T19:56:28.698Z,-9.52
2022-12-01T19:58:52.485Z,-9.52
2022-12-01T20:01:30.628Z,-9.53
2022-12-01T20:03:33.733Z,-9.55
2022-12-01T20:05:36.457Z,-9.53
2022-12-01T20:07:39.044Z,-9.53
2022-12-01T20:09:48.333Z,-9.50
2022-12-01T20:11:53.930Z,-9.51
2022-12-01T20:13:56.559Z,-9.50
2022-12-01T20:16:20.259Z,-9.50
2022-12-01T20:18:22.852Z,-9.49
2022-12-01T20:20:25.488Z,-9.50
2022-12-01T20:22:35.072Z,-9.50
2022-12-01T20:24:41.273Z,-9.46
2022-12-01T20:26:47.516Z,-9.44
2022-12-01T20:28:51.299Z,-9.43
2022-12-01T20:30:54.025Z,-9.41
2022-12-01T20:32:56.825Z,-9.41
2022-12-01T20:34:59.465Z,-9.36
2022-12-01T20:37:02.722Z,-9.36
2022-12-01T20:39:06.613Z,-9.31
2022-12-01T20:41:09.741Z,-9.31
2022-12-01T20:43:12.370Z,-9.29
2022-12-01T20:45:14.898Z,-9.30
2022-12-01T20:47:19.005Z,-9.30
2022-12-01T20:49:21.564Z,-9.32
2022-12-01T20:51:24.246Z,-9.30
2022-12-01T20:53:27.079Z,-9.29
2022-12-01T20:55:29.809Z,-9.24
2022-12-01T20:57:32.355Z,-9.24
2022-12-01T20:59:35.760Z,-9.28
2022-12-01T21:01:38.482Z,-9.24
2022-12-01T21:03:43.037Z,-9.22
2022-12-01T21:05:45.628Z,-9.24
2022-12-01T21:07:48.418Z,-9.23
2022-12-01T21:09:51.128Z,-9.24
2022-12-01T21:12:13.033Z,-9.24
2022-12-01T21:14:22.304Z,-9.24
2022-12-01T21:16:32.679Z,-9.23
2022-12-01T21:18:41.524Z,-9.22
2022-12-01T21:20:46.150Z,-9.21
2022-12-01T21:22:50.562Z,-9.21
2022-12-01T21:25:01.845Z,-9.19
2022-12-01T21:27:14.890Z,-9.17
2022-12-01T21:29:40.467Z,-9.14
2022-12-01T21:31:43.622Z,-9.15
2022-12-01T21:33:46.421Z,-9.12
2022-12-01T21:35:52.009Z,-9.12
2022-12-01T21:38:04.700Z,-9.10
2022-12-01T21:40:23.837Z,-9.09
2022-12-01T21:42:30.758Z,-9.15
2022-12-01T21:44:37.467Z,-9.09
2022-12-01T21:46:42.260Z,-9.08
2022-12-01T21:48:46.393Z,-9.09
2022-12-01T21:51:04.879Z,-9.06
2022-12-01T21:53:15.687Z,-9.04
2022-12-01T21:55:18.209Z,-9.05
2022-12-01T21:57:42.943Z,-9.06
2022-12-01T21:59:45.966Z,-9.02
2022-12-01T22:01:55.966Z,-9.01
2022-12-01T22:04:02.422Z,-9.00
2022-12-01T22:06:30.214Z,-8.98
2022-12-01T22:08:36.682Z,-8.99
2022-12-01T22:10:58.904Z,-8.99
2022-12-01T22:13:01.284Z,-9.01
2022-12-01T22:15:33.048Z,-9.03
2022-12-01T22:17:37.508Z,-9.01
2022-12-01T22:19:47.546Z,-8.96
2022-12-01T22:22:00.683Z,-8.95
2022-12-01T22:24:09.468Z,-8.91
2022-12-01T22:26:20.615Z,-8.91
2022-12-01T22:28:25.135Z,-8.86
2022-12-01T22:30:27.773Z,-8.85
2022-12-01T22:32:32.718Z,-8.82
2022-12-01T22:34:35.427Z,-8.81
2022-12-01T22:36:38.037Z,-8.85
2022-12-01T22:38:40.895Z,-8.81
2022-12-01T22:40:50.737Z,-8.75
2022-12-01T22:42:53.282Z,-8.75
2022-12-01T22:45:00.034Z,-8.72
2022-12-01T22:47:03.137Z,-8.69
2022-12-01T22:49:20.956Z,-8.65
2022-12-01T22:51:40.094Z,-8.63
2022-12-01T22:53:45.517Z,-8.61
2022-12-01T22:55:49.033Z,-8.60
2022-12-01T22:57:51.763Z,-8.59
2022-12-01T22:59:55.424Z,-8.58
2022-12-01T23:02:00.941Z,-8.59
2022-12-01T23:04:20.522Z,-8.57
2022-12-01T23:06:59.043Z,-8.52
2022-12-01T23:09:03.620Z,-8.52
2022-12-01T23:11:11.398Z,-8.49
2022-12-01T23:13:16.862Z,-8.47
2022-12-01T23:15:39.045Z,-8.47
2022-12-01T23:17:41.643Z,-8.47
2022-12-01T23:19:44.083Z,-8.50
2022-12-01T23:21:46.661Z,-8.48
2022-12-01T23:23:49.186Z,-8.46
2022-12-01T23:25:51.876Z,-8.46
2022-12-01T23:28:03.016Z,-8.45
2022-12-01T23:30:06.615Z,-8.44
2022-12-01T23:32:10.668Z,-8.45
2022-12-01T23:34:15.899Z,-8.43
2022-12-01T23:36:29.369Z,-8.44
2022-12-01T23:38:39.590Z,-8.44
2022-12-01T23:40:42.901Z,-8.45
2022-12-01T23:42:45.637Z,-8.47
2022-12-01T23:44:49.828Z,-8.48
2022-12-01T23:46:55.830Z,-8.53
2022-12-01T23:49:10.049Z,-8.48
2022-12-01T23:51:19.294Z,-8.45
2022-12-01T23:53:30.826Z,-8.45
2022-12-01T23:55:34.439Z,-8.44
2022-12-01T23:57:37.437Z,-8.45
2022-12-01T23:59:40.081Z,-8.41
